sensor_id;sensor_type;location;lat;lon;timestamp;temperature;humidity
1686;DHT22;840;47.980;7.830;2023-07-29T00:00:46;19.60;99.90
1686;DHT22;840;47.980;7.830;2023-07-29T00:03:13;19.60;99.90
1686;DHT22;840;47.980;7.830;2023-07-29T00:05:40;19.50;99.90
1686;DHT22;840;47.980;7.830;2023-07-29T00:08:08;19.50;99.90
1686;DHT22;840;47.980;7.830;2023-07-29T00:10:37;19.50;99.90
1686;DHT22;840;47.980;7.830;2023-07-29T00:13:04;19.50;99.90
1686;DHT22;840;47.980;7.830;2023-07-29T00:15:31;19.50;99.90
1686;DHT22;840;47.980;7.830;2023-07-29T00:17:57;19.60;99.90
1686;DHT22;840;47.980;7.830;2023-07-29T00:20:24;19.50;99.90
1686;DHT22;840;47.980;7.830;2023-07-29T00:22:50;19.50;99.90
1686;DHT22;840;47.980;7.830;2023-07-29T00:25:21;19.50;99.90
1686;DHT22;840;47.980;7.830;2023-07-29T00:27:48;19.50;99.90
1686;DHT22;840;47.980;7.830;2023-07-29T00:30:15;19.50;99.90
1686;DHT22;840;47.980;7.830;2023-07-29T00:32:41;19.50;99.90
1686;DHT22;840;47.980;7.830;2023-07-29T00:35:08;19.60;99.90
1686;DHT22;840;47.980;7.830;2023-07-29T00:37:35;19.60;99.90
1686;DHT22;840;47.980;7.830;2023-07-29T00:40:03;19.60;99.90
1686;DHT22;840;47.980;7.830;2023-07-29T00:42:31;19.60;99.90
1686;DHT22;840;47.980;7.830;2023-07-29T00:44:58;19.60;99.90
1686;DHT22;840;47.980;7.830;2023-07-29T00:47:25;19.60;99.90
1686;DHT22;840;47.980;7.830;2023-07-29T00:49:52;19.60;99.90
1686;DHT22;840;47.980;7.830;2023-07-29T00:52:18;19.60;99.90
1686;DHT22;840;47.980;7.830;2023-07-29T00:54:45;19.60;99.90
1686;DHT22;840;47.980;7.830;2023-07-29T00:57:14;19.60;99.90
1686;DHT22;840;47.980;7.830;2023-07-29T00:59:43;19.60;99.90
1686;DHT22;840;47.980;7.830;2023-07-29T01:02:10;19.60;99.90
1686;DHT22;840;47.980;7.830;2023-07-29T01:04:37;19.60;99.90
1686;DHT22;840;47.980;7.830;2023-07-29T01:07:20;19.60;99.90
1686;DHT22;840;47.980;7.830;2023-07-29T01:09:56;19.60;99.90
1686;DHT22;840;47.980;7.830;2023-07-29T01:12:33;19.60;99.90
1686;DHT22;840;47.980;7.830;2023-07-29T01:15:09;19.70;99.90
1686;DHT22;840;47.980;7.830;2023-07-29T01:17:40;19.70;99.90
1686;DHT22;840;47.980;7.830;2023-07-29T01:20:09;19.70;99.90
1686;DHT22;840;47.980;7.830;2023-07-29T01:22:38;19.70;99.90
1686;DHT22;840;47.980;7.830;2023-07-29T01:25:07;19.70;99.90
1686;DHT22;840;47.980;7.830;2023-07-29T01:27:34;19.70;99.90
1686;DHT22;840;47.980;7.830;2023-07-29T01:30:02;19.70;99.90
1686;DHT22;840;47.980;7.830;2023-07-29T01:32:34;19.70;99.90
1686;DHT22;840;47.980;7.830;2023-07-29T01:35:10;19.70;99.90
1686;DHT22;840;47.980;7.830;2023-07-29T01:37:39;19.70;99.90
1686;DHT22;840;47.980;7.830;2023-07-29T01:40:10;19.70;99.90
1686;DHT22;840;47.980;7.830;2023-07-29T01:42:37;19.70;99.90
1686;DHT22;840;47.980;7.830;2023-07-29T01:45:05;19.60;99.90
1686;DHT22;840;47.980;7.830;2023-07-29T01:47:32;19.60;99.90
1686;DHT22;840;47.980;7.830;2023-07-29T01:49:59;19.60;99.90
1686;DHT22;840;47.980;7.830;2023-07-29T01:52:25;19.60;99.90
1686;DHT22;840;47.980;7.830;2023-07-29T01:54:52;19.60;99.90
1686;DHT22;840;47.980;7.830;2023-07-29T01:57:20;19.60;99.90
1686;DHT22;840;47.980;7.830;2023-07-29T01:59:47;19.60;99.90
1686;DHT22;840;47.980;7.830;2023-07-29T02:02:14;19.60;99.90
1686;DHT22;840;47.980;7.830;2023-07-29T02:04:40;19.60;99.90
1686;DHT22;840;47.980;7.830;2023-07-29T02:07:07;19.60;99.90
1686;DHT22;840;47.980;7.830;2023-07-29T02:09:34;19.60;99.90
1686;DHT22;840;47.980;7.830;2023-07-29T02:12:01;19.60;99.90
1686;DHT22;840;47.980;7.830;2023-07-29T02:14:29;19.50;99.90
1686;DHT22;840;47.980;7.830;2023-07-29T02:16:56;19.60;99.90
1686;DHT22;840;47.980;7.830;2023-07-29T02:19:23;19.50;99.90
1686;DHT22;840;47.980;7.830;2023-07-29T02:21:49;19.50;99.90
1686;DHT22;840;47.980;7.830;2023-07-29T02:24:16;19.50;99.90
1686;DHT22;840;47.980;7.830;2023-07-29T02:26:43;19.50;99.90
1686;DHT22;840;47.980;7.830;2023-07-29T02:29:09;19.50;99.90
1686;DHT22;840;47.980;7.830;2023-07-29T02:31:37;19.50;99.90
1686;DHT22;840;47.980;7.830;2023-07-29T02:34:04;19.50;99.90
1686;DHT22;840;47.980;7.830;2023-07-29T02:36:31;19.60;99.90
1686;DHT22;840;47.980;7.830;2023-07-29T02:38:58;19.60;99.90
1686;DHT22;840;47.980;7.830;2023-07-29T02:41:25;19.60;99.90
1686;DHT22;840;47.980;7.830;2023-07-29T02:43:52;19.60;99.90
1686;DHT22;840;47.980;7.830;2023-07-29T02:46:18;19.60;99.90
1686;DHT22;840;47.980;7.830;2023-07-29T02:48:46;19.60;99.90
1686;DHT22;840;47.980;7.830;2023-07-29T02:51:13;19.60;99.90
1686;DHT22;840;47.980;7.830;2023-07-29T02:53:40;19.70;99.90
1686;DHT22;840;47.980;7.830;2023-07-29T02:56:08;19.60;99.90
1686;DHT22;840;47.980;7.830;2023-07-29T02:58:35;19.70;99.90
1686;DHT22;840;47.980;7.830;2023-07-29T03:01:03;19.70;99.90
1686;DHT22;840;47.980;7.830;2023-07-29T03:03:30;19.70;99.90
1686;DHT22;840;47.980;7.830;2023-07-29T03:06:02;19.70;99.90
1686;DHT22;840;47.980;7.830;2023-07-29T03:08:29;19.60;99.90
1686;DHT22;840;47.980;7.830;2023-07-29T03:10:57;19.60;99.90
1686;DHT22;840;47.980;7.830;2023-07-29T03:13:23;19.60;99.90
1686;DHT22;840;47.980;7.830;2023-07-29T03:15:51;19.60;99.90
1686;DHT22;840;47.980;7.830;2023-07-29T03:18:18;19.60;99.90
1686;DHT22;840;47.980;7.830;2023-07-29T03:20:45;19.60;99.90
1686;DHT22;840;47.980;7.830;2023-07-29T03:23:13;19.60;99.90
1686;DHT22;840;47.980;7.830;2023-07-29T03:25:40;19.60;99.90
1686;DHT22;840;47.980;7.830;2023-07-29T03:28:06;19.60;99.90
1686;DHT22;840;47.980;7.830;2023-07-29T03:30:33;19.60;99.90
1686;DHT22;840;47.980;7.830;2023-07-29T03:33:00;19.60;99.90
1686;DHT22;840;47.980;7.830;2023-07-29T03:35:27;19.60;99.90
1686;DHT22;840;47.980;7.830;2023-07-29T03:37:54;19.60;99.90
1686;DHT22;840;47.980;7.830;2023-07-29T03:40:23;19.60;99.90
1686;DHT22;840;47.980;7.830;2023-07-29T03:42:49;19.50;99.90
1686;DHT22;840;47.980;7.830;2023-07-29T03:45:16;19.50;99.90
1686;DHT22;840;47.980;7.830;2023-07-29T03:47:43;19.50;99.90
1686;DHT22;840;47.980;7.830;2023-07-29T03:50:10;19.50;99.90
1686;DHT22;840;47.980;7.830;2023-07-29T03:52:37;19.50;99.90
1686;DHT22;840;47.980;7.830;2023-07-29T03:55:04;19.50;99.90
1686;DHT22;840;47.980;7.830;2023-07-29T03:57:32;19.40;99.90
1686;DHT22;840;47.980;7.830;2023-07-29T03:59:59;19.40;99.90
1686;DHT22;840;47.980;7.830;2023-07-29T04:02:26;19.40;99.90
1686;DHT22;840;47.980;7.830;2023-07-29T04:04:54;19.40;99.90
1686;DHT22;840;47.980;7.830;2023-07-29T04:07:20;19.40;99.90
1686;DHT22;840;47.980;7.830;2023-07-29T04:09:47;19.40;99.90
1686;DHT22;840;47.980;7.830;2023-07-29T04:12:14;19.40;99.90
1686;DHT22;840;47.980;7.830;2023-07-29T04:14:42;19.40;99.90
1686;DHT22;840;47.980;7.830;2023-07-29T04:17:09;19.30;99.90
1686;DHT22;840;47.980;7.830;2023-07-29T04:19:36;19.30;99.90
1686;DHT22;840;47.980;7.830;2023-07-29T04:22:03;19.30;99.90
1686;DHT22;840;47.980;7.830;2023-07-29T04:24:30;19.30;99.90
1686;DHT22;840;47.980;7.830;2023-07-29T04:26:56;19.30;99.90
1686;DHT22;840;47.980;7.830;2023-07-29T04:29:23;19.30;99.90
1686;DHT22;840;47.980;7.830;2023-07-29T04:31:51;19.30;99.90
1686;DHT22;840;47.980;7.830;2023-07-29T04:34:19;19.30;99.90
1686;DHT22;840;47.980;7.830;2023-07-29T04:36:46;19.40;99.90
1686;DHT22;840;47.980;7.830;2023-07-29T04:39:12;19.50;99.90
1686;DHT22;840;47.980;7.830;2023-07-29T04:41:39;19.60;99.90
1686;DHT22;840;47.980;7.830;2023-07-29T04:44:06;19.70;99.90
1686;DHT22;840;47.980;7.830;2023-07-29T04:46:35;19.80;99.90
1686;DHT22;840;47.980;7.830;2023-07-29T04:49:03;20.00;99.90
1686;DHT22;840;47.980;7.830;2023-07-29T04:51:30;20.10;99.90
1686;DHT22;840;47.980;7.830;2023-07-29T04:53:58;20.20;99.90
1686;DHT22;840;47.980;7.830;2023-07-29T04:56:25;20.40;99.90
1686;DHT22;840;47.980;7.830;2023-07-29T04:58:52;20.40;99.90
1686;DHT22;840;47.980;7.830;2023-07-29T05:01:19;20.60;99.90
1686;DHT22;840;47.980;7.830;2023-07-29T05:03:46;20.70;99.90
1686;DHT22;840;47.980;7.830;2023-07-29T05:06:14;20.80;99.90
1686;DHT22;840;47.980;7.830;2023-07-29T05:08:41;20.90;99.90
1686;DHT22;840;47.980;7.830;2023-07-29T05:11:07;21.00;99.90
1686;DHT22;840;47.980;7.830;2023-07-29T05:13:34;21.10;99.90
1686;DHT22;840;47.980;7.830;2023-07-29T05:16:01;21.20;99.90
1686;DHT22;840;47.980;7.830;2023-07-29T05:18:27;21.20;99.90
1686;DHT22;840;47.980;7.830;2023-07-29T05:20:54;21.30;99.90
1686;DHT22;840;47.980;7.830;2023-07-29T05:23:22;21.30;99.90
1686;DHT22;840;47.980;7.830;2023-07-29T05:25:50;21.40;99.90
1686;DHT22;840;47.980;7.830;2023-07-29T05:28:17;21.50;99.90
1686;DHT22;840;47.980;7.830;2023-07-29T05:30:44;21.60;99.90
1686;DHT22;840;47.980;7.830;2023-07-29T05:33:10;21.50;99.90
1686;DHT22;840;47.980;7.830;2023-07-29T05:35:37;21.60;99.90
1686;DHT22;840;47.980;7.830;2023-07-29T05:38:04;21.60;99.90
1686;DHT22;840;47.980;7.830;2023-07-29T05:40:33;21.60;99.90
1686;DHT22;840;47.980;7.830;2023-07-29T05:43:00;21.70;99.90
1686;DHT22;840;47.980;7.830;2023-07-29T05:45:28;21.70;99.90
1686;DHT22;840;47.980;7.830;2023-07-29T05:47:56;21.70;99.90
1686;DHT22;840;47.980;7.830;2023-07-29T05:50:23;21.70;99.90
1686;DHT22;840;47.980;7.830;2023-07-29T05:52:49;21.70;99.90
1686;DHT22;840;47.980;7.830;2023-07-29T05:55:16;21.80;99.90
1686;DHT22;840;47.980;7.830;2023-07-29T05:57:44;21.80;99.90
1686;DHT22;840;47.980;7.830;2023-07-29T06:00:12;21.80;99.90
1686;DHT22;840;47.980;7.830;2023-07-29T06:02:39;21.80;99.90
1686;DHT22;840;47.980;7.830;2023-07-29T06:05:07;21.90;99.90
1686;DHT22;840;47.980;7.830;2023-07-29T06:07:34;21.90;99.90
1686;DHT22;840;47.980;7.830;2023-07-29T06:10:00;22.00;99.90
1686;DHT22;840;47.980;7.830;2023-07-29T06:12:27;22.00;99.90
1686;DHT22;840;47.980;7.830;2023-07-29T06:14:55;22.00;99.90
1686;DHT22;840;47.980;7.830;2023-07-29T06:17:22;22.10;99.90
1686;DHT22;840;47.980;7.830;2023-07-29T06:19:49;22.10;99.90
1686;DHT22;840;47.980;7.830;2023-07-29T06:22:16;22.10;99.90
1686;DHT22;840;47.980;7.830;2023-07-29T06:24:43;22.20;99.90
1686;DHT22;840;47.980;7.830;2023-07-29T06:27:09;22.20;99.90
1686;DHT22;840;47.980;7.830;2023-07-29T06:29:36;22.20;99.90
1686;DHT22;840;47.980;7.830;2023-07-29T06:32:05;22.20;99.90
1686;DHT22;840;47.980;7.830;2023-07-29T06:34:32;22.10;99.90
1686;DHT22;840;47.980;7.830;2023-07-29T06:36:58;22.10;99.90
1686;DHT22;840;47.980;7.830;2023-07-29T06:39:25;22.20;99.90
1686;DHT22;840;47.980;7.830;2023-07-29T06:41:52;22.20;99.90
1686;DHT22;840;47.980;7.830;2023-07-29T06:44:18;22.10;99.90
1686;DHT22;840;47.980;7.830;2023-07-29T06:46:47;21.70;99.90
1686;DHT22;840;47.980;7.830;2023-07-29T06:49:15;20.90;99.90
1686;DHT22;840;47.980;7.830;2023-07-29T06:51:42;20.50;99.90
1686;DHT22;840;47.980;7.830;2023-07-29T06:54:08;20.30;99.90
1686;DHT22;840;47.980;7.830;2023-07-29T06:56:35;20.10;99.90
1686;DHT22;840;47.980;7.830;2023-07-29T06:59:02;20.00;99.90
1686;DHT22;840;47.980;7.830;2023-07-29T07:01:29;19.90;99.90
1686;DHT22;840;47.980;7.830;2023-07-29T07:03:56;20.00;99.90
1686;DHT22;840;47.980;7.830;2023-07-29T07:06:25;20.00;99.90
1686;DHT22;840;47.980;7.830;2023-07-29T07:08:52;20.00;99.90
1686;DHT22;840;47.980;7.830;2023-07-29T07:11:18;20.00;99.90
1686;DHT22;840;47.980;7.830;2023-07-29T07:13:45;20.10;99.90
1686;DHT22;840;47.980;7.830;2023-07-29T07:16:17;20.10;99.90
1686;DHT22;840;47.980;7.830;2023-07-29T07:18:44;20.20;99.90
1686;DHT22;840;47.980;7.830;2023-07-29T07:21:11;20.30;99.90
1686;DHT22;840;47.980;7.830;2023-07-29T07:23:39;20.20;99.90
1686;DHT22;840;47.980;7.830;2023-07-29T07:26:06;20.30;99.90
1686;DHT22;840;47.980;7.830;2023-07-29T07:28:33;20.30;99.90
1686;DHT22;840;47.980;7.830;2023-07-29T07:30:59;20.40;99.90
1686;DHT22;840;47.980;7.830;2023-07-29T07:33:26;20.50;99.90
1686;DHT22;840;47.980;7.830;2023-07-29T07:35:53;20.60;99.90
1686;DHT22;840;47.980;7.830;2023-07-29T07:38:19;20.60;99.90
1686;DHT22;840;47.980;7.830;2023-07-29T07:40:53;20.70;99.90
1686;DHT22;840;47.980;7.830;2023-07-29T07:43:21;20.70;99.90
1686;DHT22;840;47.980;7.830;2023-07-29T07:45:48;20.80;99.90
1686;DHT22;840;47.980;7.830;2023-07-29T07:48:15;20.80;99.90
1686;DHT22;840;47.980;7.830;2023-07-29T07:50:42;20.90;99.90
1686;DHT22;840;47.980;7.830;2023-07-29T07:53:09;21.00;99.90
1686;DHT22;840;47.980;7.830;2023-07-29T07:55:36;21.10;99.90
1686;DHT22;840;47.980;7.830;2023-07-29T07:58:04;21.30;99.90
1686;DHT22;840;47.980;7.830;2023-07-29T08:00:31;21.40;99.90
1686;DHT22;840;47.980;7.830;2023-07-29T08:02:57;21.60;99.90
1686;DHT22;840;47.980;7.830;2023-07-29T08:05:24;21.70;99.90
1686;DHT22;840;47.980;7.830;2023-07-29T08:07:51;21.90;99.90
1686;DHT22;840;47.980;7.830;2023-07-29T08:10:18;22.00;99.90
1686;DHT22;840;47.980;7.830;2023-07-29T08:12:44;22.20;99.90
1686;DHT22;840;47.980;7.830;2023-07-29T08:15:13;22.40;99.90
1686;DHT22;840;47.980;7.830;2023-07-29T08:17:39;22.50;99.90
1686;DHT22;840;47.980;7.830;2023-07-29T08:20:07;22.70;99.90
1686;DHT22;840;47.980;7.830;2023-07-29T08:22:34;22.90;99.90
1686;DHT22;840;47.980;7.830;2023-07-29T08:25:01;23.00;99.90
1686;DHT22;840;47.980;7.830;2023-07-29T08:27:28;23.10;99.90
1686;DHT22;840;47.980;7.830;2023-07-29T08:29:55;23.20;99.90
1686;DHT22;840;47.980;7.830;2023-07-29T08:32:23;23.20;99.90
1686;DHT22;840;47.980;7.830;2023-07-29T08:34:49;23.20;99.90
1686;DHT22;840;47.980;7.830;2023-07-29T08:37:16;23.20;99.90
1686;DHT22;840;47.980;7.830;2023-07-29T08:39:43;23.30;99.90
1686;DHT22;840;47.980;7.830;2023-07-29T08:42:11;23.30;99.90
1686;DHT22;840;47.980;7.830;2023-07-29T08:44:41;23.20;99.90
1686;DHT22;840;47.980;7.830;2023-07-29T08:47:08;23.20;99.90
1686;DHT22;840;47.980;7.830;2023-07-29T08:49:37;23.20;99.90
1686;DHT22;840;47.980;7.830;2023-07-29T08:52:05;23.30;99.90
1686;DHT22;840;47.980;7.830;2023-07-29T08:54:33;23.40;99.90
1686;DHT22;840;47.980;7.830;2023-07-29T08:57:00;23.50;99.90
1686;DHT22;840;47.980;7.830;2023-07-29T08:59:28;23.60;99.90
1686;DHT22;840;47.980;7.830;2023-07-29T09:01:56;23.70;99.90
1686;DHT22;840;47.980;7.830;2023-07-29T09:04:23;23.90;99.90
1686;DHT22;840;47.980;7.830;2023-07-29T09:06:52;24.00;99.90
1686;DHT22;840;47.980;7.830;2023-07-29T09:09:21;24.20;99.90
1686;DHT22;840;47.980;7.830;2023-07-29T09:11:48;24.20;99.90
1686;DHT22;840;47.980;7.830;2023-07-29T09:14:15;24.30;99.90
1686;DHT22;840;47.980;7.830;2023-07-29T09:16:41;24.40;99.90
1686;DHT22;840;47.980;7.830;2023-07-29T09:19:08;24.40;99.90
1686;DHT22;840;47.980;7.830;2023-07-29T09:21:38;24.50;99.90
1686;DHT22;840;47.980;7.830;2023-07-29T09:24:07;24.60;99.90
1686;DHT22;840;47.980;7.830;2023-07-29T09:26:35;24.60;99.90
1686;DHT22;840;47.980;7.830;2023-07-29T09:29:02;24.60;99.90
1686;DHT22;840;47.980;7.830;2023-07-29T09:31:29;24.60;99.90
1686;DHT22;840;47.980;7.830;2023-07-29T09:33:57;24.60;99.90
1686;DHT22;840;47.980;7.830;2023-07-29T09:36:24;24.60;99.90
1686;DHT22;840;47.980;7.830;2023-07-29T09:38:55;24.60;99.90
1686;DHT22;840;47.980;7.830;2023-07-29T09:41:24;24.60;99.90
1686;DHT22;840;47.980;7.830;2023-07-29T09:43:56;24.60;99.90
1686;DHT22;840;47.980;7.830;2023-07-29T09:46:24;24.60;99.90
1686;DHT22;840;47.980;7.830;2023-07-29T09:48:53;24.70;99.90
1686;DHT22;840;47.980;7.830;2023-07-29T09:51:21;24.80;99.90
1686;DHT22;840;47.980;7.830;2023-07-29T09:53:50;24.80;99.90
1686;DHT22;840;47.980;7.830;2023-07-29T09:56:17;24.90;99.90
1686;DHT22;840;47.980;7.830;2023-07-29T09:58:45;25.10;99.90
1686;DHT22;840;47.980;7.830;2023-07-29T10:01:13;25.10;99.90
1686;DHT22;840;47.980;7.830;2023-07-29T10:03:40;25.10;99.90
1686;DHT22;840;47.980;7.830;2023-07-29T10:06:07;25.10;99.90
1686;DHT22;840;47.980;7.830;2023-07-29T10:08:34;25.10;99.90
1686;DHT22;840;47.980;7.830;2023-07-29T10:11:05;25.10;99.90
1686;DHT22;840;47.980;7.830;2023-07-29T10:13:33;25.10;99.90
1686;DHT22;840;47.980;7.830;2023-07-29T10:16:01;25.10;99.90
1686;DHT22;840;47.980;7.830;2023-07-29T10:18:29;25.20;99.90
1686;DHT22;840;47.980;7.830;2023-07-29T10:20:58;25.20;99.90
1686;DHT22;840;47.980;7.830;2023-07-29T10:23:26;25.20;99.90
1686;DHT22;840;47.980;7.830;2023-07-29T10:25:57;25.20;99.90
1686;DHT22;840;47.980;7.830;2023-07-29T10:28:31;25.30;99.90
1686;DHT22;840;47.980;7.830;2023-07-29T10:31:03;25.30;99.90
1686;DHT22;840;47.980;7.830;2023-07-29T10:33:31;25.30;99.90
1686;DHT22;840;47.980;7.830;2023-07-29T10:35:59;25.30;99.90
1686;DHT22;840;47.980;7.830;2023-07-29T10:38:26;25.40;99.90
1686;DHT22;840;47.980;7.830;2023-07-29T10:40:55;25.50;99.90
1686;DHT22;840;47.980;7.830;2023-07-29T10:43:26;25.60;99.90
1686;DHT22;840;47.980;7.830;2023-07-29T10:45:55;25.70;99.90
1686;DHT22;840;47.980;7.830;2023-07-29T10:48:42;25.90;99.90
1686;DHT22;840;47.980;7.830;2023-07-29T10:51:26;26.00;99.90
1686;DHT22;840;47.980;7.830;2023-07-29T10:53:55;26.10;99.90
1686;DHT22;840;47.980;7.830;2023-07-29T10:56:30;26.20;99.90
1686;DHT22;840;47.980;7.830;2023-07-29T10:58:59;26.20;99.90
1686;DHT22;840;47.980;7.830;2023-07-29T11:01:29;26.10;99.90
1686;DHT22;840;47.980;7.830;2023-07-29T11:04:27;26.10;99.90
1686;DHT22;840;47.980;7.830;2023-07-29T11:07:18;26.00;99.90
1686;DHT22;840;47.980;7.830;2023-07-29T11:09:59;26.00;99.90
1686;DHT22;840;47.980;7.830;2023-07-29T11:12:37;26.00;99.90
1686;DHT22;840;47.980;7.830;2023-07-29T11:15:14;26.10;99.90
1686;DHT22;840;47.980;7.830;2023-07-29T11:17:42;26.10;99.90
1686;DHT22;840;47.980;7.830;2023-07-29T11:20:12;26.20;99.90
1686;DHT22;840;47.980;7.830;2023-07-29T11:22:39;26.30;99.90
1686;DHT22;840;47.980;7.830;2023-07-29T11:25:08;26.30;99.90
1686;DHT22;840;47.980;7.830;2023-07-29T11:27:35;26.30;99.90
1686;DHT22;840;47.980;7.830;2023-07-29T11:30:04;26.30;99.90
1686;DHT22;840;47.980;7.830;2023-07-29T11:32:32;26.30;99.90
1686;DHT22;840;47.980;7.830;2023-07-29T11:35:02;26.40;99.90
1686;DHT22;840;47.980;7.830;2023-07-29T11:37:30;26.50;99.90
1686;DHT22;840;47.980;7.830;2023-07-29T11:39:57;26.50;99.90
1686;DHT22;840;47.980;7.830;2023-07-29T11:42:26;26.50;99.90
1686;DHT22;840;47.980;7.830;2023-07-29T11:44:53;26.50;99.90
1686;DHT22;840;47.980;7.830;2023-07-29T11:47:19;26.60;99.90
1686;DHT22;840;47.980;7.830;2023-07-29T11:49:46;26.60;99.90
1686;DHT22;840;47.980;7.830;2023-07-29T11:52:13;26.50;99.90
1686;DHT22;840;47.980;7.830;2023-07-29T11:54:47;26.50;99.90
1686;DHT22;840;47.980;7.830;2023-07-29T11:57:14;26.50;99.90
1686;DHT22;840;47.980;7.830;2023-07-29T11:59:42;26.50;99.90
1686;DHT22;840;47.980;7.830;2023-07-29T12:02:12;26.60;99.90
1686;DHT22;840;47.980;7.830;2023-07-29T12:04:40;26.80;99.90
1686;DHT22;840;47.980;7.830;2023-07-29T12:07:08;26.90;99.90
1686;DHT22;840;47.980;7.830;2023-07-29T12:09:35;27.00;99.90
1686;DHT22;840;47.980;7.830;2023-07-29T12:12:04;27.10;99.90
1686;DHT22;840;47.980;7.830;2023-07-29T12:14:32;27.20;99.90
1686;DHT22;840;47.980;7.830;2023-07-29T12:17:00;27.40;99.90
1686;DHT22;840;47.980;7.830;2023-07-29T12:19:32;27.50;99.90
1686;DHT22;840;47.980;7.830;2023-07-29T12:21:59;27.40;99.90
1686;DHT22;840;47.980;7.830;2023-07-29T12:24:26;27.40;99.90
1686;DHT22;840;47.980;7.830;2023-07-29T12:26:53;27.30;99.90
1686;DHT22;840;47.980;7.830;2023-07-29T12:29:21;27.30;99.90
1686;DHT22;840;47.980;7.830;2023-07-29T12:31:48;27.20;99.90
1686;DHT22;840;47.980;7.830;2023-07-29T12:34:18;27.20;99.90
1686;DHT22;840;47.980;7.830;2023-07-29T12:36:46;27.20;99.90
1686;DHT22;840;47.980;7.830;2023-07-29T12:39:17;27.20;99.90
1686;DHT22;840;47.980;7.830;2023-07-29T12:41:44;27.20;99.90
1686;DHT22;840;47.980;7.830;2023-07-29T12:44:11;27.10;99.90
1686;DHT22;840;47.980;7.830;2023-07-29T12:46:40;27.10;99.90
1686;DHT22;840;47.980;7.830;2023-07-29T12:49:06;27.00;99.90
1686;DHT22;840;47.980;7.830;2023-07-29T12:51:33;26.90;99.90
1686;DHT22;840;47.980;7.830;2023-07-29T12:54:01;26.90;99.90
1686;DHT22;840;47.980;7.830;2023-07-29T12:56:28;27.00;99.90
1686;DHT22;840;47.980;7.830;2023-07-29T12:58:56;27.00;99.90
1686;DHT22;840;47.980;7.830;2023-07-29T13:01:23;27.10;99.90
1686;DHT22;840;47.980;7.830;2023-07-29T13:03:51;27.10;99.90
1686;DHT22;840;47.980;7.830;2023-07-29T13:06:18;27.10;99.90
1686;DHT22;840;47.980;7.830;2023-07-29T13:08:45;27.10;99.90
1686;DHT22;840;47.980;7.830;2023-07-29T13:11:12;27.20;99.90
1686;DHT22;840;47.980;7.830;2023-07-29T13:13:39;27.10;99.90
1686;DHT22;840;47.980;7.830;2023-07-29T13:16:06;27.10;99.90
1686;DHT22;840;47.980;7.830;2023-07-29T13:18:33;27.10;99.90
1686;DHT22;840;47.980;7.830;2023-07-29T13:21:01;27.10;99.90
1686;DHT22;840;47.980;7.830;2023-07-29T13:23:28;27.10;99.90
1686;DHT22;840;47.980;7.830;2023-07-29T13:25:55;27.20;99.90
1686;DHT22;840;47.980;7.830;2023-07-29T13:28:22;27.20;99.90
1686;DHT22;840;47.980;7.830;2023-07-29T13:30:49;27.20;99.90
1686;DHT22;840;47.980;7.830;2023-07-29T13:33:16;27.30;99.90
1686;DHT22;840;47.980;7.830;2023-07-29T13:35:42;27.40;99.90
1686;DHT22;840;47.980;7.830;2023-07-29T13:38:11;27.40;99.90
1686;DHT22;840;47.980;7.830;2023-07-29T13:40:38;27.30;99.90
1686;DHT22;840;47.980;7.830;2023-07-29T13:43:04;27.30;99.90
1686;DHT22;840;47.980;7.830;2023-07-29T13:45:31;27.20;99.90
1686;DHT22;840;47.980;7.830;2023-07-29T13:47:58;27.20;99.90
1686;DHT22;840;47.980;7.830;2023-07-29T13:50:24;27.20;99.90
1686;DHT22;840;47.980;7.830;2023-07-29T13:52:51;27.30;99.90
1686;DHT22;840;47.980;7.830;2023-07-29T13:55:20;27.50;99.90
1686;DHT22;840;47.980;7.830;2023-07-29T13:57:46;27.70;99.90
1686;DHT22;840;47.980;7.830;2023-07-29T14:00:14;27.90;99.90
1686;DHT22;840;47.980;7.830;2023-07-29T14:02:41;28.00;99.90
1686;DHT22;840;47.980;7.830;2023-07-29T14:05:08;28.20;99.90
1686;DHT22;840;47.980;7.830;2023-07-29T14:07:37;28.30;99.90
1686;DHT22;840;47.980;7.830;2023-07-29T14:10:04;28.40;99.90
1686;DHT22;840;47.980;7.830;2023-07-29T14:12:33;28.40;99.90
1686;DHT22;840;47.980;7.830;2023-07-29T14:15:01;28.40;99.90
1686;DHT22;840;47.980;7.830;2023-07-29T14:17:27;28.30;99.90
1686;DHT22;840;47.980;7.830;2023-07-29T14:19:55;28.10;99.90
1686;DHT22;840;47.980;7.830;2023-07-29T14:22:21;27.90;99.90
1686;DHT22;840;47.980;7.830;2023-07-29T14:24:48;27.70;99.90
1686;DHT22;840;47.980;7.830;2023-07-29T14:27:15;27.20;99.90
1686;DHT22;840;47.980;7.830;2023-07-29T14:29:43;26.60;99.90
1686;DHT22;840;47.980;7.830;2023-07-29T14:32:10;25.60;99.90
1686;DHT22;840;47.980;7.830;2023-07-29T14:34:37;24.30;99.90
1686;DHT22;840;47.980;7.830;2023-07-29T14:37:05;23.30;99.90
1686;DHT22;840;47.980;7.830;2023-07-29T14:39:31;22.80;99.90
1686;DHT22;840;47.980;7.830;2023-07-29T14:41:58;22.50;99.90
1686;DHT22;840;47.980;7.830;2023-07-29T14:44:25;22.40;99.90
1686;DHT22;840;47.980;7.830;2023-07-29T14:46:53;22.30;99.90
1686;DHT22;840;47.980;7.830;2023-07-29T14:49:20;22.20;99.90
1686;DHT22;840;47.980;7.830;2023-07-29T14:51:47;22.10;99.90
1686;DHT22;840;47.980;7.830;2023-07-29T14:54:14;22.10;99.90
1686;DHT22;840;47.980;7.830;2023-07-29T14:56:40;22.10;99.90
1686;DHT22;840;47.980;7.830;2023-07-29T14:59:08;22.20;99.90
1686;DHT22;840;47.980;7.830;2023-07-29T15:01:34;22.30;99.90
1686;DHT22;840;47.980;7.830;2023-07-29T15:04:03;22.30;99.90
1686;DHT22;840;47.980;7.830;2023-07-29T15:06:30;22.40;99.90
1686;DHT22;840;47.980;7.830;2023-07-29T15:08:56;22.40;99.90
1686;DHT22;840;47.980;7.830;2023-07-29T15:11:23;22.40;99.90
1686;DHT22;840;47.980;7.830;2023-07-29T15:13:50;22.40;99.90
1686;DHT22;840;47.980;7.830;2023-07-29T15:16:17;22.40;99.90
1686;DHT22;840;47.980;7.830;2023-07-29T15:18:44;22.40;99.90
1686;DHT22;840;47.980;7.830;2023-07-29T15:21:12;22.40;99.90
1686;DHT22;840;47.980;7.830;2023-07-29T15:23:39;22.50;99.90
1686;DHT22;840;47.980;7.830;2023-07-29T15:26:05;22.70;99.90
1686;DHT22;840;47.980;7.830;2023-07-29T15:28:32;22.70;99.90
1686;DHT22;840;47.980;7.830;2023-07-29T15:30:59;22.80;99.90
1686;DHT22;840;47.980;7.830;2023-07-29T15:33:26;22.90;99.90
1686;DHT22;840;47.980;7.830;2023-07-29T15:35:52;23.00;99.90
1686;DHT22;840;47.980;7.830;2023-07-29T15:38:20;23.10;99.90
1686;DHT22;840;47.980;7.830;2023-07-29T15:40:47;23.30;99.90
1686;DHT22;840;47.980;7.830;2023-07-29T15:43:16;23.50;99.90
1686;DHT22;840;47.980;7.830;2023-07-29T15:45:43;23.70;99.90
1686;DHT22;840;47.980;7.830;2023-07-29T15:48:10;23.90;99.90
1686;DHT22;840;47.980;7.830;2023-07-29T15:50:37;24.20;99.90
1686;DHT22;840;47.980;7.830;2023-07-29T15:53:04;24.20;99.90
1686;DHT22;840;47.980;7.830;2023-07-29T15:55:32;24.30;99.90
1686;DHT22;840;47.980;7.830;2023-07-29T15:57:59;24.30;99.90
1686;DHT22;840;47.980;7.830;2023-07-29T16:00:26;24.10;99.90
1686;DHT22;840;47.980;7.830;2023-07-29T16:02:54;24.10;99.90
1686;DHT22;840;47.980;7.830;2023-07-29T16:05:21;24.00;99.90
1686;DHT22;840;47.980;7.830;2023-07-29T16:07:47;23.90;99.90
1686;DHT22;840;47.980;7.830;2023-07-29T16:10:14;23.80;99.90
1686;DHT22;840;47.980;7.830;2023-07-29T16:12:42;23.80;99.90
1686;DHT22;840;47.980;7.830;2023-07-29T16:15:10;23.70;99.90
1686;DHT22;840;47.980;7.830;2023-07-29T16:17:37;23.70;99.90
1686;DHT22;840;47.980;7.830;2023-07-29T16:20:04;23.60;99.90